Terminal Aerodrome Forecast
Issued by NWS Knoxville/Tri Cities, TN

Home | Current Version | Previous Version | Text Only | Print | Product List | Glossary On
Versions: 1 2 3 4 5 6 7 8 9 10 11 12 13 14 15 16 17 18 19 20 21 22 23 24 25 26 27 28 29 30 31 32 33 34
519
FTUS44 KMRX 091455 AAB
TAFCHA
TAF AMD
KCHA 091455Z 0915/1012 33008KT 1SM -SN OVC020
     FM091700 28010G18KT 3SM -SN OVC025
     FM100100 29010KT P6SM OVC025=

USA.gov is the U.S. government's official web portal to all federal, state and local government web resources and services.